sensor_id;sensor_type;location;lat;lon;timestamp;P1;durP1;ratioP1;P2;durP2;ratioP2
20383;SDS011;46458;50.966;7.002;2023-07-20T00:01:42;5.18;;;3.40;;
20383;SDS011;46458;50.966;7.002;2023-07-20T00:04:14;5.75;;;2.80;;
20383;SDS011;46458;50.966;7.002;2023-07-20T00:06:43;6.18;;;3.00;;
20383;SDS011;46458;50.966;7.002;2023-07-20T00:09:11;6.47;;;3.00;;
20383;SDS011;46458;50.966;7.002;2023-07-20T00:11:47;5.55;;;2.80;;
20383;SDS011;46458;50.966;7.002;2023-07-20T00:14:17;6.45;;;3.05;;
20383;SDS011;46458;50.966;7.002;2023-07-20T00:16:49;7.78;;;2.75;;
20383;SDS011;46458;50.966;7.002;2023-07-20T00:19:21;6.63;;;2.97;;
20383;SDS011;46458;50.966;7.002;2023-07-20T00:21:50;4.85;;;3.00;;
20383;SDS011;46458;50.966;7.002;2023-07-20T00:24:20;3.78;;;2.90;;
20383;SDS011;46458;50.966;7.002;2023-07-20T00:26:49;8.50;;;2.70;;
20383;SDS011;46458;50.966;7.002;2023-07-20T00:29:17;4.72;;;2.83;;
20383;SDS011;46458;50.966;7.002;2023-07-20T00:31:52;4.78;;;3.05;;
20383;SDS011;46458;50.966;7.002;2023-07-20T00:34:22;6.07;;;2.70;;
20383;SDS011;46458;50.966;7.002;2023-07-20T00:36:53;6.28;;;2.95;;
20383;SDS011;46458;50.966;7.002;2023-07-20T00:39:22;4.68;;;2.83;;
20383;SDS011;46458;50.966;7.002;2023-07-20T00:41:51;6.10;;;3.30;;
20383;SDS011;46458;50.966;7.002;2023-07-20T00:44:20;6.10;;;3.60;;
20383;SDS011;46458;50.966;7.002;2023-07-20T00:46:54;4.07;;;3.13;;
20383;SDS011;46458;50.966;7.002;2023-07-20T00:49:25;6.50;;;3.45;;
20383;SDS011;46458;50.966;7.002;2023-07-20T00:51:54;5.05;;;2.90;;
20383;SDS011;46458;50.966;7.002;2023-07-20T00:54:23;5.80;;;2.70;;
20383;SDS011;46458;50.966;7.002;2023-07-20T00:56:53;5.13;;;2.93;;
20383;SDS011;46458;50.966;7.002;2023-07-20T00:59:23;6.00;;;2.67;;
20383;SDS011;46458;50.966;7.002;2023-07-20T01:01:54;3.65;;;2.50;;
20383;SDS011;46458;50.966;7.002;2023-07-20T01:04:23;4.50;;;2.80;;
20383;SDS011;46458;50.966;7.002;2023-07-20T01:06:56;4.47;;;2.97;;
20383;SDS011;46458;50.966;7.002;2023-07-20T01:09:45;4.10;;;2.90;;
20383;SDS011;46458;50.966;7.002;2023-07-20T01:12:22;3.83;;;2.50;;
20383;SDS011;46458;50.966;7.002;2023-07-20T01:14:54;5.57;;;2.77;;
20383;SDS011;46458;50.966;7.002;2023-07-20T01:17:25;3.47;;;2.80;;
20383;SDS011;46458;50.966;7.002;2023-07-20T01:19:54;3.50;;;2.88;;
20383;SDS011;46458;50.966;7.002;2023-07-20T01:22:29;4.50;;;2.93;;
20383;SDS011;46458;50.966;7.002;2023-07-20T01:25:12;5.83;;;3.30;;
20383;SDS011;46458;50.966;7.002;2023-07-20T01:30:59;4.93;;;3.10;;
20383;SDS011;46458;50.966;7.002;2023-07-20T01:33:54;4.90;;;3.00;;
20383;SDS011;46458;50.966;7.002;2023-07-20T01:36:24;4.97;;;2.87;;
20383;SDS011;46458;50.966;7.002;2023-07-20T01:38:56;5.27;;;2.70;;
20383;SDS011;46458;50.966;7.002;2023-07-20T01:41:26;6.67;;;3.10;;
20383;SDS011;46458;50.966;7.002;2023-07-20T01:43:57;5.30;;;2.93;;
20383;SDS011;46458;50.966;7.002;2023-07-20T01:46:28;3.30;;;2.70;;
20383;SDS011;46458;50.966;7.002;2023-07-20T01:48:57;3.80;;;2.40;;
20383;SDS011;46458;50.966;7.002;2023-07-20T01:51:26;5.50;;;2.73;;
20383;SDS011;46458;50.966;7.002;2023-07-20T01:53:55;4.43;;;2.53;;
20383;SDS011;46458;50.966;7.002;2023-07-20T01:56:25;3.80;;;2.43;;
20383;SDS011;46458;50.966;7.002;2023-07-20T01:58:54;4.77;;;2.90;;
20383;SDS011;46458;50.966;7.002;2023-07-20T02:01:23;4.40;;;2.50;;
20383;SDS011;46458;50.966;7.002;2023-07-20T02:04:00;4.10;;;2.63;;
20383;SDS011;46458;50.966;7.002;2023-07-20T02:06:29;4.63;;;3.00;;
20383;SDS011;46458;50.966;7.002;2023-07-20T02:08:58;4.00;;;2.60;;
20383;SDS011;46458;50.966;7.002;2023-07-20T02:11:30;4.53;;;2.60;;
20383;SDS011;46458;50.966;7.002;2023-07-20T02:14:02;4.90;;;2.93;;
20383;SDS011;46458;50.966;7.002;2023-07-20T02:16:31;3.93;;;3.10;;
20383;SDS011;46458;50.966;7.002;2023-07-20T02:19:02;2.93;;;2.60;;
20383;SDS011;46458;50.966;7.002;2023-07-20T02:21:33;5.13;;;2.70;;
20383;SDS011;46458;50.966;7.002;2023-07-20T02:24:03;3.77;;;2.60;;
20383;SDS011;46458;50.966;7.002;2023-07-20T02:26:32;4.07;;;2.77;;
20383;SDS011;46458;50.966;7.002;2023-07-20T02:29:07;4.20;;;2.93;;
20383;SDS011;46458;50.966;7.002;2023-07-20T02:31:37;6.73;;;3.50;;
20383;SDS011;46458;50.966;7.002;2023-07-20T02:34:10;6.87;;;2.93;;
20383;SDS011;46458;50.966;7.002;2023-07-20T02:36:39;6.57;;;3.67;;
20383;SDS011;46458;50.966;7.002;2023-07-20T02:39:08;5.83;;;3.50;;
20383;SDS011;46458;50.966;7.002;2023-07-20T02:41:37;3.60;;;2.97;;
20383;SDS011;46458;50.966;7.002;2023-07-20T02:44:09;5.30;;;3.37;;
20383;SDS011;46458;50.966;7.002;2023-07-20T02:46:38;5.50;;;3.30;;
20383;SDS011;46458;50.966;7.002;2023-07-20T02:49:14;4.83;;;3.00;;
20383;SDS011;46458;50.966;7.002;2023-07-20T02:51:43;4.63;;;3.27;;
20383;SDS011;46458;50.966;7.002;2023-07-20T02:54:15;7.93;;;3.77;;
20383;SDS011;46458;50.966;7.002;2023-07-20T02:56:44;5.40;;;3.90;;
20383;SDS011;46458;50.966;7.002;2023-07-20T02:59:13;5.63;;;3.37;;
20383;SDS011;46458;50.966;7.002;2023-07-20T03:01:44;7.00;;;3.40;;
20383;SDS011;46458;50.966;7.002;2023-07-20T03:04:16;6.53;;;3.47;;
20383;SDS011;46458;50.966;7.002;2023-07-20T03:06:45;8.80;;;3.60;;
20383;SDS011;46458;50.966;7.002;2023-07-20T03:09:13;8.67;;;3.50;;
20383;SDS011;46458;50.966;7.002;2023-07-20T03:11:42;4.17;;;3.60;;
20383;SDS011;46458;50.966;7.002;2023-07-20T03:14:14;5.90;;;3.27;;
20383;SDS011;46458;50.966;7.002;2023-07-20T03:16:43;5.30;;;3.27;;
20383;SDS011;46458;50.966;7.002;2023-07-20T03:19:12;5.70;;;3.53;;
20383;SDS011;46458;50.966;7.002;2023-07-20T03:21:44;6.47;;;3.47;;
20383;SDS011;46458;50.966;7.002;2023-07-20T03:24:13;6.50;;;3.57;;
20383;SDS011;46458;50.966;7.002;2023-07-20T03:26:42;5.23;;;2.90;;
20383;SDS011;46458;50.966;7.002;2023-07-20T03:29:12;5.00;;;2.83;;
20383;SDS011;46458;50.966;7.002;2023-07-20T03:31:43;5.97;;;3.27;;
20383;SDS011;46458;50.966;7.002;2023-07-20T03:34:19;5.50;;;3.43;;
20383;SDS011;46458;50.966;7.002;2023-07-20T03:36:51;4.53;;;3.13;;
20383;SDS011;46458;50.966;7.002;2023-07-20T03:39:20;7.47;;;3.23;;
20383;SDS011;46458;50.966;7.002;2023-07-20T03:41:50;5.97;;;3.10;;
20383;SDS011;46458;50.966;7.002;2023-07-20T03:44:22;5.63;;;3.13;;
20383;SDS011;46458;50.966;7.002;2023-07-20T03:46:50;6.10;;;3.50;;
20383;SDS011;46458;50.966;7.002;2023-07-20T03:49:22;5.50;;;3.20;;
20383;SDS011;46458;50.966;7.002;2023-07-20T03:51:53;5.17;;;3.20;;
20383;SDS011;46458;50.966;7.002;2023-07-20T03:54:23;5.63;;;3.10;;
20383;SDS011;46458;50.966;7.002;2023-07-20T03:56:52;5.83;;;3.10;;
20383;SDS011;46458;50.966;7.002;2023-07-20T03:59:21;3.87;;;3.03;;
20383;SDS011;46458;50.966;7.002;2023-07-20T04:01:52;4.77;;;2.90;;
20383;SDS011;46458;50.966;7.002;2023-07-20T04:04:24;7.37;;;3.60;;
20383;SDS011;46458;50.966;7.002;2023-07-20T04:06:52;5.33;;;3.30;;
20383;SDS011;46458;50.966;7.002;2023-07-20T04:09:21;4.73;;;3.07;;
20383;SDS011;46458;50.966;7.002;2023-07-20T04:11:50;5.07;;;3.10;;
20383;SDS011;46458;50.966;7.002;2023-07-20T04:14:19;4.13;;;3.00;;
20383;SDS011;46458;50.966;7.002;2023-07-20T04:16:48;5.97;;;2.97;;
20383;SDS011;46458;50.966;7.002;2023-07-20T04:19:17;5.07;;;2.77;;
20383;SDS011;46458;50.966;7.002;2023-07-20T04:21:48;6.10;;;2.93;;
20383;SDS011;46458;50.966;7.002;2023-07-20T04:24:17;6.00;;;3.20;;
20383;SDS011;46458;50.966;7.002;2023-07-20T04:26:46;6.43;;;3.40;;
20383;SDS011;46458;50.966;7.002;2023-07-20T04:29:14;4.83;;;2.93;;
20383;SDS011;46458;50.966;7.002;2023-07-20T04:31:43;5.83;;;3.03;;
20383;SDS011;46458;50.966;7.002;2023-07-20T04:34:13;4.57;;;3.07;;
20383;SDS011;46458;50.966;7.002;2023-07-20T04:36:44;7.00;;;3.27;;
20383;SDS011;46458;50.966;7.002;2023-07-20T04:39:15;5.23;;;3.30;;
20383;SDS011;46458;50.966;7.002;2023-07-20T04:41:44;6.77;;;3.27;;
20383;SDS011;46458;50.966;7.002;2023-07-20T04:44:15;4.93;;;3.03;;
20383;SDS011;46458;50.966;7.002;2023-07-20T04:46:43;5.40;;;3.57;;
20383;SDS011;46458;50.966;7.002;2023-07-20T04:49:14;7.27;;;3.30;;
20383;SDS011;46458;50.966;7.002;2023-07-20T04:51:47;6.72;;;3.30;;
20383;SDS011;46458;50.966;7.002;2023-07-20T04:54:19;5.87;;;3.10;;
20383;SDS011;46458;50.966;7.002;2023-07-20T04:56:48;8.00;;;3.63;;
20383;SDS011;46458;50.966;7.002;2023-07-20T04:59:19;4.73;;;3.13;;
20383;SDS011;46458;50.966;7.002;2023-07-20T05:01:48;9.87;;;4.27;;
20383;SDS011;46458;50.966;7.002;2023-07-20T05:04:17;6.27;;;3.40;;
20383;SDS011;46458;50.966;7.002;2023-07-20T05:06:46;5.33;;;3.30;;
20383;SDS011;46458;50.966;7.002;2023-07-20T05:09:15;9.50;;;4.17;;
20383;SDS011;46458;50.966;7.002;2023-07-20T05:11:48;5.50;;;3.70;;
20383;SDS011;46458;50.966;7.002;2023-07-20T05:14:17;8.47;;;4.20;;
20383;SDS011;46458;50.966;7.002;2023-07-20T05:16:47;7.87;;;3.90;;
20383;SDS011;46458;50.966;7.002;2023-07-20T05:19:16;8.20;;;3.70;;
20383;SDS011;46458;50.966;7.002;2023-07-20T05:21:45;7.30;;;3.90;;
20383;SDS011;46458;50.966;7.002;2023-07-20T05:24:14;5.87;;;3.63;;
20383;SDS011;46458;50.966;7.002;2023-07-20T05:26:45;7.10;;;4.30;;
20383;SDS011;46458;50.966;7.002;2023-07-20T05:29:15;8.20;;;5.30;;
20383;SDS011;46458;50.966;7.002;2023-07-20T05:31:44;6.83;;;4.60;;
20383;SDS011;46458;50.966;7.002;2023-07-20T05:34:13;5.90;;;4.40;;
20383;SDS011;46458;50.966;7.002;2023-07-20T05:39:40;6.47;;;4.33;;
20383;SDS011;46458;50.966;7.002;2023-07-20T05:42:12;8.23;;;5.77;;
20383;SDS011;46458;50.966;7.002;2023-07-20T05:44:41;8.40;;;5.23;;
20383;SDS011;46458;50.966;7.002;2023-07-20T05:47:10;8.70;;;5.47;;
20383;SDS011;46458;50.966;7.002;2023-07-20T05:49:39;5.77;;;4.60;;
20383;SDS011;46458;50.966;7.002;2023-07-20T05:52:08;8.07;;;5.80;;
20383;SDS011;46458;50.966;7.002;2023-07-20T05:54:37;9.32;;;6.53;;
20383;SDS011;46458;50.966;7.002;2023-07-20T05:57:05;9.07;;;7.03;;
20383;SDS011;46458;50.966;7.002;2023-07-20T05:59:37;10.53;;;6.20;;
20383;SDS011;46458;50.966;7.002;2023-07-20T06:02:09;9.50;;;6.47;;
20383;SDS011;46458;50.966;7.002;2023-07-20T06:04:41;9.30;;;6.43;;
20383;SDS011;46458;50.966;7.002;2023-07-20T06:07:10;10.80;;;6.67;;
20383;SDS011;46458;50.966;7.002;2023-07-20T06:09:39;9.70;;;7.40;;
20383;SDS011;46458;50.966;7.002;2023-07-20T06:12:08;9.32;;;6.93;;
20383;SDS011;46458;50.966;7.002;2023-07-20T06:14:40;9.27;;;6.77;;
20383;SDS011;46458;50.966;7.002;2023-07-20T06:17:09;10.15;;;7.30;;
20383;SDS011;46458;50.966;7.002;2023-07-20T06:19:41;12.93;;;7.85;;
20383;SDS011;46458;50.966;7.002;2023-07-20T06:22:09;10.48;;;7.55;;
20383;SDS011;46458;50.966;7.002;2023-07-20T06:24:40;11.90;;;8.23;;
20383;SDS011;46458;50.966;7.002;2023-07-20T06:27:12;11.13;;;8.00;;
20383;SDS011;46458;50.966;7.002;2023-07-20T06:29:44;9.90;;;8.20;;
20383;SDS011;46458;50.966;7.002;2023-07-20T06:32:12;10.00;;;7.97;;
20383;SDS011;46458;50.966;7.002;2023-07-20T06:34:41;11.73;;;7.80;;
20383;SDS011;46458;50.966;7.002;2023-07-20T06:37:10;14.33;;;8.70;;
20383;SDS011;46458;50.966;7.002;2023-07-20T06:39:39;10.65;;;7.78;;
20383;SDS011;46458;50.966;7.002;2023-07-20T06:42:08;8.77;;;7.50;;
20383;SDS011;46458;50.966;7.002;2023-07-20T06:44:37;11.82;;;7.25;;
20383;SDS011;46458;50.966;7.002;2023-07-20T06:47:08;10.63;;;7.03;;
20383;SDS011;46458;50.966;7.002;2023-07-20T06:49:37;8.75;;;7.10;;
20383;SDS011;46458;50.966;7.002;2023-07-20T06:52:06;10.57;;;6.78;;
20383;SDS011;46458;50.966;7.002;2023-07-20T06:54:35;9.65;;;6.75;;
20383;SDS011;46458;50.966;7.002;2023-07-20T06:57:04;7.50;;;6.18;;
20383;SDS011;46458;50.966;7.002;2023-07-20T06:59:35;9.85;;;6.55;;
20383;SDS011;46458;50.966;7.002;2023-07-20T07:02:05;8.77;;;6.47;;
20383;SDS011;46458;50.966;7.002;2023-07-20T07:04:39;8.32;;;6.25;;
20383;SDS011;46458;50.966;7.002;2023-07-20T07:07:08;9.85;;;6.78;;
20383;SDS011;46458;50.966;7.002;2023-07-20T07:09:37;8.45;;;6.60;;
20383;SDS011;46458;50.966;7.002;2023-07-20T07:12:06;9.85;;;7.28;;
20383;SDS011;46458;50.966;7.002;2023-07-20T07:14:38;9.48;;;7.00;;
20383;SDS011;46458;50.966;7.002;2023-07-20T07:17:09;8.23;;;6.50;;
20383;SDS011;46458;50.966;7.002;2023-07-20T07:19:38;7.60;;;6.53;;
20383;SDS011;46458;50.966;7.002;2023-07-20T07:22:07;7.90;;;6.15;;
20383;SDS011;46458;50.966;7.002;2023-07-20T07:24:37;8.48;;;6.53;;
20383;SDS011;46458;50.966;7.002;2023-07-20T07:27:08;9.02;;;5.45;;
20383;SDS011;46458;50.966;7.002;2023-07-20T07:29:37;8.85;;;6.10;;
20383;SDS011;46458;50.966;7.002;2023-07-20T07:32:08;9.85;;;5.55;;
20383;SDS011;46458;50.966;7.002;2023-07-20T07:34:40;8.32;;;5.88;;
20383;SDS011;46458;50.966;7.002;2023-07-20T07:37:13;6.57;;;5.85;;
20383;SDS011;46458;50.966;7.002;2023-07-20T07:39:42;7.65;;;5.10;;
20383;SDS011;46458;50.966;7.002;2023-07-20T07:42:11;4.78;;;4.30;;
20383;SDS011;46458;50.966;7.002;2023-07-20T07:44:40;3.38;;;3.08;;
20383;SDS011;46458;50.966;7.002;2023-07-20T07:47:12;4.43;;;3.97;;
20383;SDS011;46458;50.966;7.002;2023-07-20T07:49:40;4.80;;;3.90;;
20383;SDS011;46458;50.966;7.002;2023-07-20T07:52:15;6.22;;;4.43;;
20383;SDS011;46458;50.966;7.002;2023-07-20T07:54:44;6.18;;;3.97;;
20383;SDS011;46458;50.966;7.002;2023-07-20T07:57:12;6.90;;;4.15;;
20383;SDS011;46458;50.966;7.002;2023-07-20T07:59:43;7.30;;;4.78;;
20383;SDS011;46458;50.966;7.002;2023-07-20T08:02:15;4.75;;;4.25;;
20383;SDS011;46458;50.966;7.002;2023-07-20T08:04:44;8.30;;;4.72;;
20383;SDS011;46458;50.966;7.002;2023-07-20T08:07:13;6.43;;;4.70;;
20383;SDS011;46458;50.966;7.002;2023-07-20T08:09:42;5.80;;;4.70;;
20383;SDS011;46458;50.966;7.002;2023-07-20T08:12:11;6.00;;;4.28;;
20383;SDS011;46458;50.966;7.002;2023-07-20T08:14:43;7.47;;;4.82;;
20383;SDS011;46458;50.966;7.002;2023-07-20T08:17:19;6.22;;;3.97;;
20383;SDS011;46458;50.966;7.002;2023-07-20T08:19:47;5.03;;;4.35;;
20383;SDS011;46458;50.966;7.002;2023-07-20T08:22:16;8.10;;;5.25;;
20383;SDS011;46458;50.966;7.002;2023-07-20T08:24:45;9.32;;;5.22;;
20383;SDS011;46458;50.966;7.002;2023-07-20T08:27:14;8.20;;;4.30;;
20383;SDS011;46458;50.966;7.002;2023-07-20T08:29:43;5.15;;;3.40;;
20383;SDS011;46458;50.966;7.002;2023-07-20T08:32:12;4.85;;;2.67;;
20383;SDS011;46458;50.966;7.002;2023-07-20T08:34:46;3.45;;;2.95;;
20383;SDS011;46458;50.966;7.002;2023-07-20T08:37:15;4.00;;;2.85;;
20383;SDS011;46458;50.966;7.002;2023-07-20T08:39:44;3.17;;;2.83;;
20383;SDS011;46458;50.966;7.002;2023-07-20T08:42:12;3.42;;;2.70;;
20383;SDS011;46458;50.966;7.002;2023-07-20T08:44:43;4.88;;;3.10;;
20383;SDS011;46458;50.966;7.002;2023-07-20T08:47:13;4.95;;;2.60;;
20383;SDS011;46458;50.966;7.002;2023-07-20T08:49:47;5.10;;;3.45;;
20383;SDS011;46458;50.966;7.002;2023-07-20T08:52:17;3.47;;;2.83;;
20383;SDS011;46458;50.966;7.002;2023-07-20T08:54:45;3.80;;;2.45;;
20383;SDS011;46458;50.966;7.002;2023-07-20T08:57:15;2.97;;;2.60;;
20383;SDS011;46458;50.966;7.002;2023-07-20T08:59:44;3.85;;;2.78;;
20383;SDS011;46458;50.966;7.002;2023-07-20T09:02:15;2.47;;;2.20;;
20383;SDS011;46458;50.966;7.002;2023-07-20T09:04:47;5.60;;;2.85;;
20383;SDS011;46458;50.966;7.002;2023-07-20T09:07:17;3.75;;;2.95;;
20383;SDS011;46458;50.966;7.002;2023-07-20T09:09:47;5.45;;;3.05;;
20383;SDS011;46458;50.966;7.002;2023-07-20T09:12:15;4.05;;;2.83;;
20383;SDS011;46458;50.966;7.002;2023-07-20T09:14:44;3.45;;;2.70;;
20383;SDS011;46458;50.966;7.002;2023-07-20T09:17:18;3.08;;;2.10;;
20383;SDS011;46458;50.966;7.002;2023-07-20T09:19:49;2.88;;;2.67;;
20383;SDS011;46458;50.966;7.002;2023-07-20T09:22:18;3.65;;;2.70;;
20383;SDS011;46458;50.966;7.002;2023-07-20T09:24:47;2.40;;;2.10;;
20383;SDS011;46458;50.966;7.002;2023-07-20T09:27:16;14.98;;;4.25;;
20383;SDS011;46458;50.966;7.002;2023-07-20T09:29:48;1.48;;;1.35;;
20383;SDS011;46458;50.966;7.002;2023-07-20T09:32:20;2.63;;;1.50;;
20383;SDS011;46458;50.966;7.002;2023-07-20T09:34:52;3.17;;;1.60;;
20383;SDS011;46458;50.966;7.002;2023-07-20T09:37:21;3.00;;;1.83;;
20383;SDS011;46458;50.966;7.002;2023-07-20T09:39:51;3.33;;;1.27;;
20383;SDS011;46458;50.966;7.002;2023-07-20T09:42:21;1.73;;;1.20;;
20383;SDS011;46458;50.966;7.002;2023-07-20T09:44:50;5.20;;;1.30;;
20383;SDS011;46458;50.966;7.002;2023-07-20T09:47:22;1.88;;;1.63;;
20383;SDS011;46458;50.966;7.002;2023-07-20T09:49:57;2.92;;;1.90;;
20383;SDS011;46458;50.966;7.002;2023-07-20T09:52:28;3.17;;;1.70;;
20383;SDS011;46458;50.966;7.002;2023-07-20T09:54:57;3.55;;;2.13;;
20383;SDS011;46458;50.966;7.002;2023-07-20T09:57:27;2.17;;;1.88;;
20383;SDS011;46458;50.966;7.002;2023-07-20T09:59:57;2.58;;;1.88;;
20383;SDS011;46458;50.966;7.002;2023-07-20T10:02:28;2.22;;;1.70;;
20383;SDS011;46458;50.966;7.002;2023-07-20T10:05:06;3.30;;;1.95;;
20383;SDS011;46458;50.966;7.002;2023-07-20T10:07:43;3.00;;;1.92;;
20383;SDS011;46458;50.966;7.002;2023-07-20T10:10:14;2.42;;;1.80;;
20383;SDS011;46458;50.966;7.002;2023-07-20T10:12:46;2.88;;;1.63;;
20383;SDS011;46458;50.966;7.002;2023-07-20T10:15:19;3.15;;;1.58;;
20383;SDS011;46458;50.966;7.002;2023-07-20T10:17:57;2.08;;;1.40;;
20383;SDS011;46458;50.966;7.002;2023-07-20T10:20:34;2.60;;;1.80;;
20383;SDS011;46458;50.966;7.002;2023-07-20T10:23:07;2.90;;;2.13;;
20383;SDS011;46458;50.966;7.002;2023-07-20T10:25:36;2.72;;;1.50;;
20383;SDS011;46458;50.966;7.002;2023-07-20T10:28:06;1.58;;;1.48;;
20383;SDS011;46458;50.966;7.002;2023-07-20T10:30:35;2.17;;;1.40;;
20383;SDS011;46458;50.966;7.002;2023-07-20T10:33:05;1.65;;;1.55;;
20383;SDS011;46458;50.966;7.002;2023-07-20T10:38:38;3.63;;;1.27;;
20383;SDS011;46458;50.966;7.002;2023-07-20T10:41:18;1.58;;;1.27;;
20383;SDS011;46458;50.966;7.002;2023-07-20T10:43:51;1.98;;;1.20;;
20383;SDS011;46458;50.966;7.002;2023-07-20T10:46:41;1.92;;;1.40;;
20383;SDS011;46458;50.966;7.002;2023-07-20T10:49:15;2.17;;;1.25;;
20383;SDS011;46458;50.966;7.002;2023-07-20T10:51:58;1.67;;;1.20;;
20383;SDS011;46458;50.966;7.002;2023-07-20T10:54:34;1.25;;;1.08;;
20383;SDS011;46458;50.966;7.002;2023-07-20T10:57:23;1.45;;;1.10;;
20383;SDS011;46458;50.966;7.002;2023-07-20T11:00:09;1.10;;;1.00;;
20383;SDS011;46458;50.966;7.002;2023-07-20T11:02:43;1.25;;;1.15;;
20383;SDS011;46458;50.966;7.002;2023-07-20T11:08:09;2.08;;;1.00;;
20383;SDS011;46458;50.966;7.002;2023-07-20T11:10:39;1.70;;;1.20;;
20383;SDS011;46458;50.966;7.002;2023-07-20T11:13:21;2.00;;;0.90;;
20383;SDS011;46458;50.966;7.002;2023-07-20T11:16:02;1.50;;;1.20;;
20383;SDS011;46458;50.966;7.002;2023-07-20T11:18:33;1.77;;;1.30;;
20383;SDS011;46458;50.966;7.002;2023-07-20T11:21:06;2.75;;;1.00;;
20383;SDS011;46458;50.966;7.002;2023-07-20T11:23:40;1.10;;;1.00;;
20383;SDS011;46458;50.966;7.002;2023-07-20T11:26:10;1.85;;;1.08;;
20383;SDS011;46458;50.966;7.002;2023-07-20T11:28:43;1.27;;;1.10;;
20383;SDS011;46458;50.966;7.002;2023-07-20T11:31:14;1.45;;;0.90;;
20383;SDS011;46458;50.966;7.002;2023-07-20T11:33:43;0.90;;;0.90;;
20383;SDS011;46458;50.966;7.002;2023-07-20T11:36:13;1.92;;;1.08;;
20383;SDS011;46458;50.966;7.002;2023-07-20T11:38:45;1.13;;;0.90;;
20383;SDS011;46458;50.966;7.002;2023-07-20T11:41:14;1.73;;;0.70;;
20383;SDS011;46458;50.966;7.002;2023-07-20T11:43:43;1.98;;;0.95;;
20383;SDS011;46458;50.966;7.002;2023-07-20T11:46:13;2.17;;;1.20;;
20383;SDS011;46458;50.966;7.002;2023-07-20T11:48:42;1.50;;;1.02;;
20383;SDS011;46458;50.966;7.002;2023-07-20T11:51:14;2.08;;;1.20;;
20383;SDS011;46458;50.966;7.002;2023-07-20T11:53:47;2.25;;;1.30;;
20383;SDS011;46458;50.966;7.002;2023-07-20T11:56:16;1.25;;;1.00;;
20383;SDS011;46458;50.966;7.002;2023-07-20T11:58:45;1.35;;;1.13;;
20383;SDS011;46458;50.966;7.002;2023-07-20T12:01:17;1.40;;;1.30;;
20383;SDS011;46458;50.966;7.002;2023-07-20T12:03:49;1.42;;;1.05;;
20383;SDS011;46458;50.966;7.002;2023-07-20T12:06:18;1.48;;;1.00;;
20383;SDS011;46458;50.966;7.002;2023-07-20T12:08:53;2.47;;;1.05;;
20383;SDS011;46458;50.966;7.002;2023-07-20T12:11:30;1.50;;;1.17;;
20383;SDS011;46458;50.966;7.002;2023-07-20T12:14:02;1.45;;;1.15;;
20383;SDS011;46458;50.966;7.002;2023-07-20T12:16:35;1.40;;;1.02;;
20383;SDS011;46458;50.966;7.002;2023-07-20T12:19:06;1.42;;;0.90;;
20383;SDS011;46458;50.966;7.002;2023-07-20T12:21:36;4.30;;;0.85;;
20383;SDS011;46458;50.966;7.002;2023-07-20T12:24:10;1.13;;;1.00;;
20383;SDS011;46458;50.966;7.002;2023-07-20T12:26:39;0.70;;;0.70;;
20383;SDS011;46458;50.966;7.002;2023-07-20T12:29:08;1.20;;;1.10;;
20383;SDS011;46458;50.966;7.002;2023-07-20T12:31:40;2.25;;;1.00;;
20383;SDS011;46458;50.966;7.002;2023-07-20T12:34:09;1.15;;;1.02;;
20383;SDS011;46458;50.966;7.002;2023-07-20T12:36:36;2.20;;;1.20;;
20383;SDS011;46458;50.966;7.002;2023-07-20T12:39:05;1.98;;;1.38;;
20383;SDS011;46458;50.966;7.002;2023-07-20T12:41:36;4.65;;;3.85;;
20383;SDS011;46458;50.966;7.002;2023-07-20T12:44:05;5.25;;;4.72;;
20383;SDS011;46458;50.966;7.002;2023-07-20T12:46:34;2.42;;;1.15;;
20383;SDS011;46458;50.966;7.002;2023-07-20T12:49:03;3.13;;;1.38;;
20383;SDS011;46458;50.966;7.002;2023-07-20T12:51:32;2.85;;;1.58;;
20383;SDS011;46458;50.966;7.002;2023-07-20T12:54:01;1.30;;;0.90;;
20383;SDS011;46458;50.966;7.002;2023-07-20T12:56:32;1.23;;;1.08;;
20383;SDS011;46458;50.966;7.002;2023-07-20T12:59:08;2.08;;;1.30;;
20383;SDS011;46458;50.966;7.002;2023-07-20T13:01:38;1.10;;;1.00;;
20383;SDS011;46458;50.966;7.002;2023-07-20T13:04:07;1.25;;;1.02;;
20383;SDS011;46458;50.966;7.002;2023-07-20T13:06:36;1.25;;;1.15;;
20383;SDS011;46458;50.966;7.002;2023-07-20T13:09:04;1.20;;;0.90;;
20383;SDS011;46458;50.966;7.002;2023-07-20T13:11:33;2.78;;;1.10;;
20383;SDS011;46458;50.966;7.002;2023-07-20T13:14:08;6.53;;;1.98;;
20383;SDS011;46458;50.966;7.002;2023-07-20T13:16:37;1.30;;;1.10;;
20383;SDS011;46458;50.966;7.002;2023-07-20T13:19:09;2.72;;;1.30;;
20383;SDS011;46458;50.966;7.002;2023-07-20T13:21:37;0.80;;;0.80;;
20383;SDS011;46458;50.966;7.002;2023-07-20T13:24:06;1.00;;;0.90;;
20383;SDS011;46458;50.966;7.002;2023-07-20T13:26:38;1.55;;;1.00;;
20383;SDS011;46458;50.966;7.002;2023-07-20T13:29:09;1.58;;;0.90;;
20383;SDS011;46458;50.966;7.002;2023-07-20T13:31:38;1.40;;;1.10;;
20383;SDS011;46458;50.966;7.002;2023-07-20T13:34:07;3.70;;;1.20;;
20383;SDS011;46458;50.966;7.002;2023-07-20T13:36:35;2.20;;;1.30;;
20383;SDS011;46458;50.966;7.002;2023-07-20T13:39:04;1.77;;;1.27;;
20383;SDS011;46458;50.966;7.002;2023-07-20T13:41:34;1.30;;;1.20;;
20383;SDS011;46458;50.966;7.002;2023-07-20T13:44:03;2.35;;;1.27;;
20383;SDS011;46458;50.966;7.002;2023-07-20T13:46:35;2.10;;;1.17;;
20383;SDS011;46458;50.966;7.002;2023-07-20T13:49:04;1.60;;;1.13;;
20383;SDS011;46458;50.966;7.002;2023-07-20T13:51:33;1.67;;;1.23;;
20383;SDS011;46458;50.966;7.002;2023-07-20T13:54:02;1.15;;;1.00;;
20383;SDS011;46458;50.966;7.002;2023-07-20T13:56:31;1.33;;;1.10;;
20383;SDS011;46458;50.966;7.002;2023-07-20T13:59:02;2.45;;;1.23;;
20383;SDS011;46458;50.966;7.002;2023-07-20T14:01:31;1.70;;;1.35;;
20383;SDS011;46458;50.966;7.002;2023-07-20T14:04:03;3.42;;;1.15;;
20383;SDS011;46458;50.966;7.002;2023-07-20T14:06:34;3.00;;;1.48;;
20383;SDS011;46458;50.966;7.002;2023-07-20T14:09:03;1.10;;;1.00;;
20383;SDS011;46458;50.966;7.002;2023-07-20T14:11:32;1.17;;;1.08;;
20383;SDS011;46458;50.966;7.002;2023-07-20T14:14:01;1.20;;;1.08;;
20383;SDS011;46458;50.966;7.002;2023-07-20T14:16:30;2.45;;;1.08;;
20383;SDS011;46458;50.966;7.002;2023-07-20T14:19:06;1.67;;;0.88;;
20383;SDS011;46458;50.966;7.002;2023-07-20T14:21:35;0.82;;;0.80;;
20383;SDS011;46458;50.966;7.002;2023-07-20T14:24:04;2.67;;;1.08;;
20383;SDS011;46458;50.966;7.002;2023-07-20T14:26:33;1.05;;;0.95;;
20383;SDS011;46458;50.966;7.002;2023-07-20T14:29:04;2.45;;;0.90;;
20383;SDS011;46458;50.966;7.002;2023-07-20T14:31:33;1.48;;;1.20;;
20383;SDS011;46458;50.966;7.002;2023-07-20T14:34:08;3.80;;;1.10;;
20383;SDS011;46458;50.966;7.002;2023-07-20T14:36:37;1.48;;;1.00;;
20383;SDS011;46458;50.966;7.002;2023-07-20T14:39:06;0.98;;;0.77;;
20383;SDS011;46458;50.966;7.002;2023-07-20T14:41:35;2.55;;;1.00;;
20383;SDS011;46458;50.966;7.002;2023-07-20T14:44:04;1.23;;;1.00;;
20383;SDS011;46458;50.966;7.002;2023-07-20T14:46:32;1.90;;;0.95;;
20383;SDS011;46458;50.966;7.002;2023-07-20T14:49:01;2.67;;;0.80;;
20383;SDS011;46458;50.966;7.002;2023-07-20T14:51:33;0.90;;;0.80;;
20383;SDS011;46458;50.966;7.002;2023-07-20T14:54:08;2.47;;;0.98;;
20383;SDS011;46458;50.966;7.002;2023-07-20T14:56:38;1.52;;;1.05;;
20383;SDS011;46458;50.966;7.002;2023-07-20T14:59:07;3.28;;;2.25;;
20383;SDS011;46458;50.966;7.002;2023-07-20T15:01:36;1.52;;;1.13;;
20383;SDS011;46458;50.966;7.002;2023-07-20T15:04:04;4.53;;;1.27;;
20383;SDS011;46458;50.966;7.002;2023-07-20T15:06:36;1.73;;;1.20;;
20383;SDS011;46458;50.966;7.002;2023-07-20T15:09:04;2.28;;;1.30;;
20383;SDS011;46458;50.966;7.002;2023-07-20T15:11:35;1.52;;;1.10;;
20383;SDS011;46458;50.966;7.002;2023-07-20T15:14:04;1.33;;;1.10;;
20383;SDS011;46458;50.966;7.002;2023-07-20T15:16:33;1.55;;;0.80;;
20383;SDS011;46458;50.966;7.002;2023-07-20T15:19:02;1.27;;;1.15;;
20383;SDS011;46458;50.966;7.002;2023-07-20T15:21:31;2.55;;;1.00;;